Time;durP1;ratioP1;P1;durP2;ratioP2;P2;SDS_P1;SDS_P2;PMS_P1;PMS_P2;Temp;Humidity;BMP_temperature;BMP_pressure;BME280_temperature;BME280_humidity;BME280_pressure;Samples;Min_cycle;Max_cycle;Signal;HPM_P1;HPM_P2
2021/04/17 00:02:13;;;;;;;0.60;0.60;;;2.70;99.90;;;;;;5089144;28;20256;-77
2021/04/17 00:04:40;;;;;;;0.60;0.60;;;2.60;99.90;;;;;;5088942;28;20202;-78
2021/04/17 00:07:07;;;;;;;0.60;0.60;;;2.50;99.90;;;;;;5089263;28;20221;-78
2021/04/17 00:09:33;;;;;;;0.60;0.60;;;2.40;99.90;;;;;;5089109;28;20210;-78
2021/04/17 00:12:04;;;;;;;0.57;0.57;;;2.30;99.90;;;;;;5089316;28;20251;-78
2021/04/17 00:14:33;;;;;;;0.60;0.60;;;2.30;99.90;;;;;;5088728;28;20215;-78
2021/04/17 00:17:00;;;;;;;0.50;0.50;;;2.20;99.90;;;;;;5089152;28;20198;-78
2021/04/17 00:19:26;;;;;;;0.60;0.60;;;2.10;99.90;;;;;;5088704;28;20202;-78
2021/04/17 00:21:52;;;;;;;0.50;0.50;;;2.00;99.90;;;;;;5089249;28;20241;-78
2021/04/17 00:24:19;;;;;;;0.60;0.60;;;2.00;99.90;;;;;;5088654;28;20272;-78
2021/04/17 00:26:45;;;;;;;0.60;0.60;;;2.10;99.90;;;;;;5089340;28;20230;-78
2021/04/17 00:29:12;;;;;;;0.60;0.60;;;2.10;99.90;;;;;;5088810;28;20210;-78
2021/04/17 00:31:40;;;;;;;0.50;0.50;;;2.20;99.90;;;;;;5089063;28;20207;-78
2021/04/17 00:34:07;;;;;;;0.60;0.60;;;2.40;99.90;;;;;;5088416;28;20727;-78
2021/04/17 00:36:33;;;;;;;0.60;0.60;;;2.70;99.90;;;;;;5088931;28;20230;-78
2021/04/17 00:39:00;;;;;;;0.60;0.60;;;2.80;99.90;;;;;;5088609;28;20207;-78
2021/04/17 00:41:26;;;;;;;0.50;0.50;;;2.80;99.90;;;;;;5091706;28;20207;-78
2021/04/17 00:43:52;;;;;;;0.60;0.60;;;2.80;99.90;;;;;;5092712;28;20199;-78
2021/04/17 00:46:20;;;;;;;0.60;0.60;;;2.80;99.90;;;;;;5092599;28;20214;-78
2021/04/17 00:48:47;;;;;;;0.60;0.60;;;2.90;99.90;;;;;;5092265;28;20676;-78
2021/04/17 00:51:15;;;;;;;0.60;0.60;;;2.90;99.90;;;;;;5092595;28;20203;-78
2021/04/17 00:53:41;;;;;;;0.60;0.60;;;2.90;99.90;;;;;;5091945;28;20242;-78
2021/04/17 00:56:09;;;;;;;0.60;0.60;;;3.00;99.90;;;;;;5092465;28;20256;-78
2021/04/17 00:58:37;;;;;;;0.60;0.60;;;3.00;99.90;;;;;;5092484;28;20206;-78
2021/04/17 01:01:06;;;;;;;0.60;0.60;;;3.00;99.90;;;;;;5092384;28;20210;-79
2021/04/17 01:03:42;;;;;;;0.60;0.60;;;3.10;99.90;;;;;;5092250;28;20207;-78
2021/04/17 01:06:18;;;;;;;0.55;0.55;;;3.00;99.90;;;;;;5092376;28;20234;-78
2021/04/17 01:08:49;;;;;;;0.60;0.60;;;3.10;99.90;;;;;;5092433;28;20207;-78
2021/04/17 01:11:23;;;;;;;0.60;0.60;;;3.10;99.90;;;;;;5092191;28;20199;-78
2021/04/17 01:13:50;;;;;;;0.60;0.60;;;3.10;99.90;;;;;;5092078;28;20215;-78
2021/04/17 01:16:17;;;;;;;0.60;0.60;;;3.20;99.90;;;;;;5091994;28;20214;-78
2021/04/17 01:18:45;;;;;;;0.60;0.60;;;3.30;99.90;;;;;;5092121;28;20206;-78
2021/04/17 01:21:16;;;;;;;0.60;0.60;;;3.30;99.90;;;;;;5091520;28;20218;-78
2021/04/17 01:23:47;;;;;;;0.60;0.60;;;3.40;99.90;;;;;;5091926;28;20202;-78
2021/04/17 01:26:16;;;;;;;0.60;0.60;;;3.40;99.90;;;;;;5091975;28;20227;-78
2021/04/17 01:28:45;;;;;;;0.60;0.60;;;3.50;99.90;;;;;;5091962;28;20203;-78
2021/04/17 01:31:13;;;;;;;0.60;0.60;;;3.50;99.90;;;;;;5091380;28;20202;-78
2021/04/17 01:33:42;;;;;;;0.60;0.60;;;3.60;99.90;;;;;;5091904;28;20202;-78
2021/04/17 01:36:09;;;;;;;0.60;0.60;;;3.60;99.90;;;;;;5091441;28;20217;-78
2021/04/17 01:38:41;;;;;;;0.60;0.60;;;3.60;99.90;;;;;;5091504;28;20211;-78
2021/04/17 01:41:10;;;;;;;0.60;0.60;;;3.60;99.90;;;;;;5091799;28;20199;-78
2021/04/17 01:43:37;;;;;;;0.50;0.50;;;3.60;99.90;;;;;;5091244;28;20210;-77
2021/04/17 01:46:07;;;;;;;0.60;0.60;;;3.60;99.90;;;;;;5091726;28;20203;-78
2021/04/17 01:48:34;;;;;;;0.50;0.50;;;3.70;99.90;;;;;;5091448;28;20661;-78
2021/04/17 01:51:01;;;;;;;0.60;0.60;;;3.70;99.90;;;;;;5091681;28;20207;-78
2021/04/17 01:53:30;;;;;;;0.60;0.60;;;3.70;99.90;;;;;;5091211;28;20235;-78
2021/04/17 01:55:58;;;;;;;0.60;0.60;;;3.70;99.90;;;;;;5090982;28;20199;-78
2021/04/17 01:58:27;;;;;;;0.60;0.60;;;3.80;99.90;;;;;;5091548;28;20199;-78
2021/04/17 02:00:55;;;;;;;0.60;0.60;;;3.80;99.90;;;;;;5090891;28;20203;-78
2021/04/17 02:03:22;;;;;;;0.60;0.60;;;3.90;99.90;;;;;;5091139;28;20294;-78
2021/04/17 02:05:49;;;;;;;0.50;0.50;;;3.90;99.90;;;;;;5091176;28;20244;-78
2021/04/17 02:08:16;;;;;;;0.60;0.60;;;3.90;99.90;;;;;;5091279;28;20211;-78
2021/04/17 02:10:42;;;;;;;0.60;0.60;;;3.90;99.90;;;;;;5090839;28;20210;-78
2021/04/17 02:13:09;;;;;;;0.50;0.50;;;3.90;99.90;;;;;;5090899;28;20199;-78
2021/04/17 02:15:36;;;;;;;0.60;0.60;;;3.90;99.90;;;;;;5090751;28;20267;-78
2021/04/17 02:18:12;;;;;;;0.50;0.50;;;3.90;99.90;;;;;;5090983;28;20256;-78
2021/04/17 02:20:42;;;;;;;0.60;0.60;;;3.90;99.90;;;;;;5090623;28;20211;-78
2021/04/17 02:23:09;;;;;;;0.60;0.60;;;4.00;99.90;;;;;;5090811;28;20207;-78
2021/04/17 02:25:36;;;;;;;0.60;0.60;;;4.00;99.90;;;;;;5090309;28;20219;-78
2021/04/17 02:28:02;;;;;;;0.50;0.50;;;4.00;99.90;;;;;;5090870;28;20501;-78
2021/04/17 02:30:29;;;;;;;0.60;0.60;;;4.00;99.90;;;;;;5090247;28;20207;-78
2021/04/17 02:32:56;;;;;;;0.60;0.60;;;4.00;99.90;;;;;;5090772;28;20203;-78
2021/04/17 02:35:23;;;;;;;0.60;0.60;;;4.10;99.90;;;;;;5090360;28;20546;-77
2021/04/17 02:37:50;;;;;;;0.52;0.52;;;4.10;99.90;;;;;;5090670;28;20202;-77
2021/04/17 02:40:16;;;;;;;0.60;0.60;;;4.10;99.90;;;;;;5090211;28;20234;-77
2021/04/17 02:42:42;;;;;;;0.60;0.60;;;4.10;99.90;;;;;;5090576;28;20202;-77
2021/04/17 02:45:09;;;;;;;0.60;0.60;;;4.10;99.90;;;;;;5090165;28;20207;-77
2021/04/17 02:47:35;;;;;;;0.60;0.60;;;4.10;99.90;;;;;;5090386;28;20207;-77
2021/04/17 02:50:01;;;;;;;0.60;0.60;;;4.10;99.90;;;;;;5089904;28;20248;-77
2021/04/17 02:52:28;;;;;;;0.60;0.60;;;4.20;99.90;;;;;;5090201;28;20225;-77
2021/04/17 02:54:54;;;;;;;0.60;0.60;;;4.10;99.90;;;;;;5089737;28;20649;-77
2021/04/17 02:57:20;;;;;;;0.60;0.60;;;4.10;99.90;;;;;;5090184;28;20202;-77
2021/04/17 02:59:46;;;;;;;0.50;0.50;;;4.20;99.90;;;;;;5089839;28;20209;-77
2021/04/17 03:02:14;;;;;;;0.60;0.60;;;4.20;99.90;;;;;;5090038;28;20660;-77
2021/04/17 03:04:40;;;;;;;0.60;0.60;;;4.20;99.90;;;;;;5089410;28;20557;-77
2021/04/17 03:07:06;;;;;;;0.60;0.60;;;4.20;99.90;;;;;;5089940;28;20668;-77
2021/04/17 03:09:33;;;;;;;0.60;0.60;;;4.20;99.90;;;;;;5089837;28;20206;-77
2021/04/17 03:11:59;;;;;;;0.60;0.60;;;4.20;99.90;;;;;;5089974;28;20587;-77
2021/04/17 03:14:25;;;;;;;0.60;0.60;;;4.20;99.90;;;;;;5089576;28;20241;-77
2021/04/17 03:16:52;;;;;;;0.60;0.60;;;4.20;99.90;;;;;;5089999;28;20214;-77
2021/04/17 03:19:18;;;;;;;0.60;0.60;;;4.30;99.90;;;;;;5089658;28;20283;-77
2021/04/17 03:21:44;;;;;;;0.60;0.60;;;4.30;99.90;;;;;;5089638;28;20203;-77
2021/04/17 03:24:10;;;;;;;0.60;0.60;;;4.30;99.90;;;;;;5089788;28;20203;-77
2021/04/17 03:26:37;;;;;;;0.50;0.50;;;4.30;99.90;;;;;;5089297;28;20704;-77
2021/04/17 03:29:03;;;;;;;0.60;0.60;;;4.30;99.90;;;;;;5090052;28;20207;-77
2021/04/17 03:31:29;;;;;;;0.60;0.60;;;4.30;99.90;;;;;;5089223;28;20202;-77
2021/04/17 03:33:56;;;;;;;0.60;0.60;;;4.20;99.90;;;;;;5089745;28;20223;-77
2021/04/17 03:36:22;;;;;;;0.60;0.60;;;4.20;99.90;;;;;;5089340;28;20286;-77
2021/04/17 03:38:48;;;;;;;0.60;0.60;;;4.20;99.90;;;;;;5089431;28;20250;-77
2021/04/17 03:41:14;;;;;;;0.60;0.60;;;4.20;99.90;;;;;;5089270;28;20210;-77
2021/04/17 03:43:41;;;;;;;0.57;0.57;;;4.20;99.90;;;;;;5089365;28;20199;-77
2021/04/17 03:46:07;;;;;;;0.60;0.60;;;4.20;99.90;;;;;;5089324;28;20206;-77
2021/04/17 03:48:33;;;;;;;0.60;0.60;;;4.00;99.90;;;;;;5089289;28;20202;-77
2021/04/17 03:50:59;;;;;;;0.55;0.55;;;4.20;99.90;;;;;;5089735;28;20199;-77
2021/04/17 03:53:26;;;;;;;0.50;0.50;;;4.20;99.90;;;;;;5088899;28;20226;-77
2021/04/17 03:55:52;;;;;;;0.60;0.60;;;4.10;99.90;;;;;;5089432;28;20230;-78
2021/04/17 03:58:19;;;;;;;0.60;0.60;;;4.10;99.90;;;;;;5088872;28;20207;-78
2021/04/17 04:00:46;;;;;;;0.52;0.52;;;4.00;99.90;;;;;;5089623;28;20655;-77
2021/04/17 04:03:12;;;;;;;0.60;0.60;;;3.90;99.90;;;;;;5088962;28;20206;-77
2021/04/17 04:05:38;;;;;;;0.60;0.60;;;3.90;99.90;;;;;;5089268;28;20210;-77
2021/04/17 04:08:05;;;;;;;0.60;0.60;;;3.90;99.90;;;;;;5088992;28;20203;-77
2021/04/17 04:10:31;;;;;;;0.60;0.60;;;3.90;99.90;;;;;;5089136;28;20210;-77
2021/04/17 04:12:57;;;;;;;0.60;0.60;;;3.80;99.90;;;;;;5088945;28;20244;-78
2021/04/17 04:15:24;;;;;;;0.60;0.60;;;3.80;99.90;;;;;;5090268;28;20226;-77
2021/04/17 04:17:50;;;;;;;0.60;0.60;;;3.80;99.90;;;;;;5093228;28;20832;-77
2021/04/17 04:20:17;;;;;;;0.50;0.50;;;3.70;99.90;;;;;;5093259;28;20203;-77
2021/04/17 04:22:43;;;;;;;0.60;0.60;;;3.70;99.90;;;;;;5092938;28;20808;-78
2021/04/17 04:25:10;;;;;;;0.50;0.50;;;3.70;99.90;;;;;;5093076;28;20206;-78
2021/04/17 04:27:37;;;;;;;0.52;0.52;;;3.70;99.90;;;;;;5092959;28;20203;-77
2021/04/17 04:30:06;;;;;;;0.60;0.60;;;3.70;99.90;;;;;;5093045;28;20584;-77
2021/04/17 04:32:32;;;;;;;0.60;0.60;;;3.70;99.90;;;;;;5092590;28;20619;-77
2021/04/17 04:34:59;;;;;;;0.60;0.60;;;3.60;99.90;;;;;;5092913;28;20232;-78
2021/04/17 04:37:25;;;;;;;0.60;0.60;;;3.70;99.90;;;;;;5092644;28;20608;-77
2021/04/17 04:39:51;;;;;;;0.60;0.60;;;3.70;99.90;;;;;;5092959;28;20624;-77
2021/04/17 04:42:17;;;;;;;0.60;0.60;;;3.70;99.90;;;;;;5092458;28;20214;-77
2021/04/17 04:44:43;;;;;;;0.60;0.60;;;3.70;99.90;;;;;;5092692;28;20207;-77
2021/04/17 04:47:09;;;;;;;0.60;0.60;;;3.70;99.90;;;;;;5092459;28;20203;-78
2021/04/17 04:49:35;;;;;;;0.60;0.60;;;3.70;99.90;;;;;;5092602;28;20214;-78
2021/04/17 04:52:03;;;;;;;0.60;0.60;;;3.80;99.90;;;;;;5092447;28;20280;-78
2021/04/17 04:54:29;;;;;;;0.50;0.50;;;3.80;99.90;;;;;;5092395;28;20227;-78
2021/04/17 04:56:55;;;;;;;0.50;0.50;;;3.80;99.90;;;;;;5092414;28;20207;-78
2021/04/17 04:59:21;;;;;;;0.55;0.55;;;3.80;99.90;;;;;;5092474;28;20607;-78
2021/04/17 05:01:47;;;;;;;0.60;0.60;;;3.90;99.90;;;;;;5092325;28;20592;-78
2021/04/17 05:04:13;;;;;;;0.60;0.60;;;3.90;99.90;;;;;;5092129;28;20249;-78
2021/04/17 05:06:39;;;;;;;0.60;0.60;;;3.90;99.90;;;;;;5092190;28;20668;-78
2021/04/17 05:09:07;;;;;;;0.60;0.60;;;3.90;99.90;;;;;;5092162;28;20214;-78
2021/04/17 05:11:33;;;;;;;0.60;0.60;;;3.90;99.90;;;;;;5092238;28;20211;-78
2021/04/17 05:13:59;;;;;;;0.60;0.60;;;4.00;99.90;;;;;;5092041;28;20621;-78
2021/04/17 05:16:26;;;;;;;0.60;0.60;;;4.00;99.90;;;;;;5092128;28;20664;-78
2021/04/17 05:18:52;;;;;;;0.50;0.50;;;4.00;99.90;;;;;;5091745;28;20203;-78
2021/04/17 05:21:18;;;;;;;0.60;0.60;;;4.00;99.90;;;;;;5092371;28;20217;-78
2021/04/17 05:23:44;;;;;;;0.50;0.50;;;4.10;99.90;;;;;;5091530;28;20203;-78
2021/04/17 05:26:11;;;;;;;0.60;0.60;;;4.10;99.90;;;;;;5091572;28;20231;-78
2021/04/17 05:28:37;;;;;;;0.60;0.60;;;4.10;99.90;;;;;;5091848;28;20353;-78
2021/04/17 05:31:03;;;;;;;0.50;0.50;;;4.20;99.90;;;;;;5091872;28;20210;-78
2021/04/17 05:33:29;;;;;;;0.60;0.60;;;3.60;99.90;;;;;;5091299;28;20203;-78
2021/04/17 05:35:56;;;;;;;0.60;0.60;;;4.20;99.90;;;;;;5091688;28;20701;-78
2021/04/17 05:38:22;;;;;;;0.60;0.60;;;4.20;99.90;;;;;;5091412;28;20202;-78
2021/04/17 05:40:48;;;;;;;0.55;0.55;;;4.30;99.90;;;;;;5091865;28;20276;-77
2021/04/17 05:43:16;;;;;;;0.55;0.55;;;4.30;99.90;;;;;;5091315;28;20214;-77
2021/04/17 05:45:42;;;;;;;0.60;0.60;;;4.30;99.90;;;;;;5091558;28;20277;-77
2021/04/17 05:48:08;;;;;;;0.60;0.60;;;4.60;99.90;;;;;;5091184;28;20594;-77
2021/04/17 05:50:34;;;;;;;0.60;0.60;;;5.00;99.90;;;;;;5091441;28;20209;-77
2021/04/17 05:53:00;;;;;;;0.60;0.60;;;5.10;99.90;;;;;;5090871;28;20700;-78
2021/04/17 05:55:29;;;;;;;0.60;0.60;;;5.30;99.90;;;;;;5091455;28;20229;-77
2021/04/17 05:57:55;;;;;;;0.60;0.60;;;5.50;99.90;;;;;;5090875;28;20219;-78
2021/04/17 06:00:25;;;;;;;0.50;0.50;;;5.60;99.90;;;;;;5091261;28;20206;-78
2021/04/17 06:03:06;;;;;;;0.55;0.55;;;5.50;99.90;;;;;;5090875;28;20573;-77
2021/04/17 06:05:35;;;;;;;0.50;0.50;;;5.30;99.90;;;;;;5088842;28;20252;-77
2021/04/17 06:08:05;;;;;;;0.60;0.60;;;5.20;99.90;;;;;;5090561;28;20293;-77
2021/04/17 06:10:31;;;;;;;0.60;0.60;;;5.10;99.90;;;;;;5091007;28;20207;-77
2021/04/17 06:12:58;;;;;;;0.50;0.50;;;5.10;99.90;;;;;;5090904;28;20206;-77
2021/04/17 06:15:25;;;;;;;0.60;0.60;;;5.00;99.90;;;;;;5090578;28;20591;-77
2021/04/17 06:17:51;;;;;;;0.60;0.60;;;5.00;99.90;;;;;;5090933;28;20218;-78
2021/04/17 06:20:18;;;;;;;0.60;0.60;;;5.10;99.90;;;;;;5090739;28;20206;-77
2021/04/17 06:22:44;;;;;;;0.60;0.60;;;5.30;99.90;;;;;;5090835;28;20196;-77
2021/04/17 06:25:12;;;;;;;0.60;0.60;;;5.30;99.90;;;;;;5090461;28;20199;-78
2021/04/17 06:27:38;;;;;;;0.60;0.60;;;5.40;99.90;;;;;;5090751;28;20253;-77
2021/04/17 06:30:06;;;;;;;0.60;0.60;;;5.40;99.90;;;;;;5090602;28;20404;-77
2021/04/17 06:32:33;;;;;;;0.60;0.60;;;5.40;99.90;;;;;;5090708;28;20248;-77
2021/04/17 06:34:59;;;;;;;0.60;0.60;;;5.40;99.90;;;;;;5090387;28;20219;-77
2021/04/17 06:37:25;;;;;;;0.60;0.60;;;5.40;99.90;;;;;;5090059;28;20194;-77
2021/04/17 06:39:51;;;;;;;0.57;0.57;;;5.50;99.90;;;;;;5090358;28;20207;-77
2021/04/17 06:42:22;;;;;;;0.60;0.60;;;5.50;99.90;;;;;;5090466;28;20218;-78
2021/04/17 06:44:51;;;;;;;0.50;0.50;;;5.50;99.90;;;;;;5090122;28;20340;-77
2021/04/17 06:47:18;;;;;;;0.50;0.50;;;5.60;99.90;;;;;;5090580;28;20225;-77
2021/04/17 06:49:45;;;;;;;0.60;0.60;;;5.70;99.90;;;;;;5090163;28;20229;-77
2021/04/17 06:52:13;;;;;;;0.60;0.60;;;5.70;99.90;;;;;;5090425;28;20257;-77
2021/04/17 06:54:40;;;;;;;0.60;0.60;;;5.80;99.90;;;;;;5089833;28;20579;-79
2021/04/17 06:57:06;;;;;;;0.60;0.60;;;5.90;99.90;;;;;;5090351;28;20203;-77
2021/04/17 06:59:33;;;;;;;0.60;0.60;;;6.00;99.90;;;;;;5089919;28;20583;-80
2021/04/17 07:01:59;;;;;;;0.60;0.60;;;6.10;99.90;;;;;;5090185;28;20203;-78
2021/04/17 07:04:26;;;;;;;0.60;0.60;;;6.10;99.90;;;;;;5089856;28;20198;-78
2021/04/17 07:06:55;;;;;;;0.52;0.52;;;6.30;99.90;;;;;;5090086;28;20210;-79
2021/04/17 07:09:22;;;;;;;0.60;0.60;;;6.20;99.90;;;;;;5090142;28;20199;-80
2021/04/17 07:11:48;;;;;;;0.60;0.60;;;6.40;99.90;;;;;;5090183;28;20214;-82
2021/04/17 07:14:16;;;;;;;0.60;0.60;;;6.50;99.90;;;;;;5089910;28;20284;-82
2021/04/17 07:16:57;;;;;;;0.60;0.60;;;6.10;99.90;;;;;;5089773;28;20203;-82
2021/04/17 07:19:41;;;;;;;0.57;0.57;;;6.70;99.90;;;;;;5087835;28;20664;-80
2021/04/17 07:22:16;;;;;;;0.50;0.50;;;6.90;99.90;;;;;;5079340;28;20207;-79
2021/04/17 07:24:42;;;;;;;0.60;0.60;;;6.90;99.90;;;;;;5088389;28;20233;-79
2021/04/17 07:27:09;;;;;;;0.60;0.60;;;6.80;99.90;;;;;;5089753;28;20227;-79
2021/04/17 07:29:41;;;;;;;0.60;0.60;;;6.80;99.90;;;;;;5090048;28;20203;-79
2021/04/17 07:32:18;;;;;;;0.60;0.60;;;6.80;99.90;;;;;;5090087;28;20259;-79
2021/04/17 07:35:04;;;;;;;0.60;0.60;;;7.20;99.90;;;;;;5089823;28;20272;-79
2021/04/17 07:37:31;;;;;;;0.60;0.60;;;7.10;99.90;;;;;;5089742;28;20207;-80
2021/04/17 07:40:16;;;;;;;0.60;0.60;;;7.30;99.90;;;;;;5089788;28;20439;-80
2021/04/17 07:42:44;;;;;;;0.60;0.60;;;7.50;99.90;;;;;;5089494;28;20392;-80
2021/04/17 07:45:19;;;;;;;0.60;0.60;;;7.60;99.90;;;;;;5089654;28;20202;-80
2021/04/17 07:47:45;;;;;;;0.60;0.60;;;7.60;99.90;;;;;;5089739;28;20213;-80
2021/04/17 07:50:12;;;;;;;0.60;0.60;;;7.80;99.90;;;;;;5089693;28;20207;-80
2021/04/17 07:52:39;;;;;;;0.60;0.60;;;7.70;99.90;;;;;;5089552;28;20213;-80
2021/04/17 07:55:08;;;;;;;0.50;0.50;;;7.70;99.90;;;;;;5089454;28;20230;-80
2021/04/17 07:57:36;;;;;;;0.57;0.57;;;7.80;99.90;;;;;;5089348;28;20213;-80
2021/04/17 08:00:05;;;;;;;0.60;0.60;;;7.80;99.90;;;;;;5089548;28;20730;-80
2021/04/17 08:02:32;;;;;;;0.60;0.60;;;8.00;99.90;;;;;;5089678;28;20207;-80
2021/04/17 08:05:00;;;;;;;0.50;0.50;;;8.00;99.90;;;;;;5089890;28;20311;-81
2021/04/17 08:07:27;;;;;;;0.60;0.60;;;8.10;99.90;;;;;;5090256;28;20202;-84
2021/04/17 08:09:57;;;;;;;0.60;0.60;;;8.00;99.90;;;;;;5089653;28;20575;-83
2021/04/17 08:12:25;;;;;;;0.55;0.55;;;8.30;99.90;;;;;;5089815;28;20263;-84
2021/04/17 08:14:51;;;;;;;0.60;0.60;;;8.40;99.90;;;;;;5089551;28;20529;-84
2021/04/17 08:17:18;;;;;;;0.60;0.60;;;8.50;99.90;;;;;;5089657;28;20206;-85
2021/04/17 08:19:44;;;;;;;0.60;0.60;;;8.40;99.90;;;;;;5091774;28;20577;-84
2021/04/17 08:22:11;;;;;;;0.60;0.60;;;8.40;99.90;;;;;;5089215;28;20716;-82
2021/04/17 08:24:37;;;;;;;0.60;0.60;;;8.30;99.90;;;;;;5089462;28;20210;-79
2021/04/17 08:27:05;;;;;;;0.60;0.60;;;8.30;99.90;;;;;;5088871;28;20242;-80
2021/04/17 08:29:49;;;;;;;0.60;0.60;;;8.20;99.90;;;;;;5088923;28;20273;-84
2021/04/17 08:32:26;;;;;;;0.60;0.60;;;8.40;99.90;;;;;;5090136;28;20229;-82
2021/04/17 08:35:11;;;;;;;0.50;0.50;;;8.50;99.90;;;;;;5089273;28;20229;-80
2021/04/17 08:38:03;;;;;;;0.60;0.60;;;8.50;99.90;;;;;;5097763;28;20206;-81
2021/04/17 08:40:40;;;;;;;0.60;0.60;;;8.50;99.90;;;;;;5086661;28;20675;-80
2021/04/17 08:43:27;;;;;;;0.55;0.55;;;8.60;99.90;;;;;;5091462;28;20202;-85
2021/04/17 08:46:08;;;;;;;0.60;0.60;;;8.60;99.90;;;;;;5089374;28;20191;-84
2021/04/17 08:48:55;;;;;;;0.60;0.60;;;8.80;99.90;;;;;;5091839;28;20660;-83
2021/04/17 08:51:33;;;;;;;0.60;0.60;;;9.20;99.90;;;;;;5096924;28;20199;-83
2021/04/17 08:54:23;;;;;;;0.50;0.50;;;9.10;99.90;;;;;;5097824;28;20245;-82
2021/04/17 08:56:55;;;;;;;0.60;0.60;;;9.10;99.90;;;;;;5099135;28;20285;-83
2021/04/17 08:59:24;;;;;;;0.50;0.50;;;9.00;99.90;;;;;;5098381;28;20195;-81
2021/04/17 09:01:52;;;;;;;0.60;0.60;;;9.10;99.90;;;;;;5093251;28;20615;-80
2021/04/17 09:04:18;;;;;;;0.60;0.60;;;9.30;99.90;;;;;;5094607;28;20569;-80
2021/04/17 09:06:46;;;;;;;0.60;0.60;;;9.30;99.90;;;;;;5092915;28;20339;-80
2021/04/17 09:09:30;;;;;;;0.60;0.60;;;9.50;99.90;;;;;;5092869;28;20215;-80
2021/04/17 09:12:14;;;;;;;0.60;0.60;;;9.50;99.90;;;;;;5089553;28;20678;-80
2021/04/17 09:14:52;;;;;;;0.60;0.60;;;9.50;99.90;;;;;;5098353;28;20435;-82
2021/04/17 09:17:44;;;;;;;0.60;0.60;;;9.70;99.90;;;;;;5110272;28;20756;-80
2021/04/17 09:20:26;;;;;;;0.50;0.50;;;9.90;99.90;;;;;;5089972;28;20206;-81
2021/04/17 09:22:52;;;;;;;0.60;0.60;;;9.90;99.90;;;;;;5089778;28;20206;-80
2021/04/17 09:25:42;;;;;;;0.60;0.60;;;10.80;99.90;;;;;;5091630;28;20198;-80
2021/04/17 09:28:09;;;;;;;0.60;0.60;;;9.90;99.90;;;;;;5096532;28;20301;-80
2021/04/17 09:30:36;;;;;;;0.60;0.60;;;10.10;99.90;;;;;;5105295;28;20323;-80
2021/04/17 09:33:03;;;;;;;0.60;0.60;;;10.10;99.90;;;;;;5109718;28;20590;-80
2021/04/17 09:35:31;;;;;;;0.60;0.60;;;10.30;99.90;;;;;;5098110;28;20218;-80
2021/04/17 09:38:07;;;;;;;0.50;0.50;;;10.30;99.90;;;;;;5111073;28;20542;-81
2021/04/17 09:40:35;;;;;;;0.50;0.50;;;10.40;99.90;;;;;;5100349;28;20703;-80
2021/04/17 09:43:02;;;;;;;0.60;0.60;;;10.40;99.90;;;;;;5107737;28;20198;-80
2021/04/17 09:45:31;;;;;;;0.60;0.60;;;10.30;99.90;;;;;;5094571;28;20203;-80
2021/04/17 09:47:59;;;;;;;0.57;0.57;;;10.20;99.90;;;;;;5101128;28;20198;-80
2021/04/17 09:50:27;;;;;;;0.60;0.60;;;10.30;99.90;;;;;;5111396;28;20213;-80
2021/04/17 09:52:54;;;;;;;0.60;0.60;;;10.40;99.90;;;;;;5102928;28;20199;-80
2021/04/17 09:55:32;;;;;;;0.60;0.60;;;10.30;99.90;;;;;;5108797;28;20226;-82
2021/04/17 09:58:23;;;;;;;0.60;0.60;;;10.50;99.90;;;;;;5108353;27;20341;-81
2021/04/17 10:00:50;;;;;;;0.60;0.60;;;10.50;99.90;;;;;;5110602;28;20209;-81
2021/04/17 10:03:26;;;;;;;0.60;0.60;;;10.70;99.90;;;;;;5110499;28;20202;-80
2021/04/17 10:05:53;;;;;;;0.60;0.60;;;10.80;99.90;;;;;;5111694;28;20198;-81
2021/04/17 10:08:26;;;;;;;0.60;0.60;;;10.70;99.90;;;;;;5111057;28;20210;-81
2021/04/17 10:10:52;;;;;;;0.52;0.52;;;10.80;99.90;;;;;;5111157;28;20222;-80
2021/04/17 10:13:40;;;;;;;0.52;0.52;;;10.80;99.90;;;;;;5110306;28;20202;-80
2021/04/17 10:16:07;;;;;;;0.60;0.60;;;10.90;99.90;;;;;;5111331;28;20757;-81
2021/04/17 10:18:36;;;;;;;0.50;0.50;;;10.90;99.90;;;;;;5110972;28;20203;-80
2021/04/17 10:21:03;;;;;;;0.60;0.60;;;10.80;99.90;;;;;;5110866;28;20214;-80
2021/04/17 10:23:29;;;;;;;0.60;0.60;;;10.90;99.90;;;;;;5111065;28;20201;-81
2021/04/17 10:26:03;;;;;;;0.55;0.55;;;10.80;99.90;;;;;;5111058;28;20218;-82
2021/04/17 10:28:30;;;;;;;0.60;0.60;;;11.10;99.90;;;;;;5110321;28;20331;-81
2021/04/17 10:31:00;;;;;;;0.50;0.50;;;10.90;99.90;;;;;;5110692;28;20660;-81
2021/04/17 10:33:28;;;;;;;0.60;0.60;;;10.90;99.90;;;;;;5110946;28;20312;-81
2021/04/17 10:35:57;;;;;;;0.60;0.60;;;10.90;99.90;;;;;;5111005;28;20248;-81
2021/04/17 10:38:25;;;;;;;0.60;0.60;;;11.00;99.90;;;;;;5110711;28;20206;-81
2021/04/17 10:40:51;;;;;;;0.60;0.60;;;10.90;99.90;;;;;;5110692;28;20289;-81
2021/04/17 10:43:18;;;;;;;0.55;0.55;;;11.00;99.90;;;;;;5109790;28;20209;-81
2021/04/17 10:45:45;;;;;;;0.50;0.50;;;11.30;99.90;;;;;;5110628;27;20213;-81
2021/04/17 10:48:15;;;;;;;0.60;0.60;;;11.40;99.90;;;;;;5110191;28;20205;-81
2021/04/17 10:50:43;;;;;;;0.60;0.60;;;11.30;99.90;;;;;;5110819;28;20244;-81
2021/04/17 10:53:12;;;;;;;0.60;0.60;;;11.50;99.90;;;;;;5110194;28;20202;-81
2021/04/17 10:55:43;;;;;;;0.60;0.60;;;11.70;99.90;;;;;;5110359;28;20226;-81
2021/04/17 10:58:20;;;;;;;0.60;0.60;;;11.70;99.90;;;;;;5109077;28;20233;-81
2021/04/17 11:00:49;;;;;;;0.60;0.60;;;11.70;99.90;;;;;;5110450;28;20206;-81
2021/04/17 11:03:15;;;;;;;0.60;0.60;;;11.60;99.90;;;;;;5109861;27;20206;-82
2021/04/17 11:05:42;;;;;;;0.57;0.57;;;11.40;99.90;;;;;;5110641;28;20618;-81
2021/04/17 11:08:08;;;;;;;0.60;0.60;;;11.50;99.90;;;;;;5110016;28;20241;-81
2021/04/17 11:10:38;;;;;;;0.60;0.60;;;11.70;99.90;;;;;;5110102;28;20251;-81
2021/04/17 11:13:05;;;;;;;0.55;0.55;;;11.80;99.90;;;;;;5109166;28;20232;-81
2021/04/17 11:15:33;;;;;;;0.60;0.60;;;11.80;99.90;;;;;;5110185;28;20226;-82
2021/04/17 11:18:14;;;;;;;0.60;0.60;;;12.10;99.90;;;;;;5109626;28;20202;-81
2021/04/17 11:20:55;;;;;;;0.60;0.60;;;11.60;99.90;;;;;;5110243;28;20233;-82
2021/04/17 11:23:35;;;;;;;0.60;0.60;;;11.90;99.90;;;;;;5109398;28;20292;-81
2021/04/17 11:26:04;;;;;;;0.60;0.60;;;12.00;99.90;;;;;;5110190;28;20248;-82
2021/04/17 11:28:30;;;;;;;0.60;0.60;;;12.10;99.90;;;;;;5108892;28;20209;-81
2021/04/17 11:30:57;;;;;;;0.60;0.60;;;12.20;99.90;;;;;;5110357;28;20276;-81
2021/04/17 11:33:23;;;;;;;0.50;0.50;;;11.70;99.90;;;;;;5109781;28;20664;-82
2021/04/17 11:35:50;;;;;;;0.50;0.50;;;11.80;99.90;;;;;;5109827;28;20420;-82
2021/04/17 11:38:16;;;;;;;0.50;0.50;;;11.90;99.90;;;;;;5109747;28;20531;-81
2021/04/17 11:40:43;;;;;;;0.60;0.60;;;12.10;99.90;;;;;;5109850;28;20663;-81
2021/04/17 11:43:10;;;;;;;0.60;0.60;;;12.00;99.90;;;;;;5108495;28;20198;-81
2021/04/17 11:45:36;;;;;;;0.60;0.60;;;11.70;99.90;;;;;;5109881;28;20204;-81
2021/04/17 11:48:04;;;;;;;0.60;0.60;;;11.80;99.90;;;;;;5109284;28;20210;-81
2021/04/17 11:50:30;;;;;;;0.60;0.60;;;12.00;99.90;;;;;;5109810;28;20245;-81
2021/04/17 11:52:56;;;;;;;0.60;0.60;;;12.30;99.90;;;;;;5109302;28;20198;-81
2021/04/17 11:55:23;;;;;;;0.60;0.60;;;12.40;99.90;;;;;;5109258;28;20230;-82
2021/04/17 11:57:49;;;;;;;0.60;0.60;;;12.10;99.90;;;;;;5108923;28;20244;-82
2021/04/17 12:00:18;;;;;;;0.60;0.60;;;12.00;99.90;;;;;;5109263;28;20258;-81
2021/04/17 12:02:44;;;;;;;0.60;0.60;;;12.20;99.90;;;;;;5109395;28;20206;-81
2021/04/17 12:05:11;;;;;;;0.57;0.57;;;12.80;99.90;;;;;;5113705;28;20202;-85
2021/04/17 12:07:38;;;;;;;0.60;0.60;;;12.80;99.90;;;;;;5125258;28;20201;-84
2021/04/17 12:10:05;;;;;;;0.60;0.60;;;12.90;99.90;;;;;;5110218;28;20245;-80
2021/04/17 12:12:31;;;;;;;0.60;0.60;;;12.60;99.90;;;;;;5109146;28;20225;-79
2021/04/17 12:14:57;;;;;;;0.60;0.60;;;12.10;99.90;;;;;;5109616;28;20222;-79
2021/04/17 12:17:24;;;;;;;0.60;0.60;;;12.10;99.90;;;;;;5110146;28;20225;-79
2021/04/17 12:19:53;;;;;;;0.60;0.60;;;12.20;99.90;;;;;;5109864;28;20206;-80
2021/04/17 12:22:19;;;;;;;0.60;0.60;;;12.30;99.90;;;;;;5109228;28;20586;-78
2021/04/17 12:24:45;;;;;;;0.60;0.60;;;12.50;99.90;;;;;;5101689;28;20205;-79
2021/04/17 12:27:13;;;;;;;0.60;0.60;;;12.80;99.90;;;;;;5095985;28;20215;-79
2021/04/17 12:29:39;;;;;;;0.60;0.60;;;13.00;99.90;;;;;;5095780;28;20608;-79
2021/04/17 12:32:06;;;;;;;0.60;0.60;;;13.10;99.90;;;;;;5106746;28;20225;-79
2021/04/17 12:34:33;;;;;;;0.60;0.60;;;13.00;99.90;;;;;;5101333;28;20190;-79
2021/04/17 12:36:59;;;;;;;0.60;0.60;;;13.40;99.90;;;;;;5091368;28;20209;-79
2021/04/17 12:39:28;;;;;;;0.60;0.60;;;13.70;99.90;;;;;;5093725;28;20199;-79
2021/04/17 12:41:54;;;;;;;0.60;0.60;;;13.60;99.90;;;;;;5090613;28;20441;-79
2021/04/17 12:44:20;;;;;;;0.60;0.60;;;13.70;99.90;;;;;;5092070;28;20191;-79
2021/04/17 12:46:47;;;;;;;0.57;0.57;;;14.30;99.90;;;;;;5092989;28;20195;-79
2021/04/17 12:49:13;;;;;;;0.60;0.60;;;13.50;99.90;;;;;;5092622;28;20227;-80
2021/04/17 12:51:40;;;;;;;0.60;0.60;;;13.80;99.90;;;;;;5092943;28;20675;-80
2021/04/17 12:54:07;;;;;;;0.60;0.60;;;13.50;99.90;;;;;;5092289;28;20310;-80
2021/04/17 12:56:34;;;;;;;0.60;0.60;;;13.90;99.90;;;;;;5092624;28;20227;-79
2021/04/17 12:59:00;;;;;;;0.60;0.60;;;14.20;99.90;;;;;;5092226;28;20207;-79
2021/04/17 13:01:26;;;;;;;0.60;0.60;;;14.80;99.90;;;;;;5104031;28;20229;-80
2021/04/17 13:03:53;;;;;;;0.60;0.60;;;14.60;99.90;;;;;;5112937;28;20205;-79